Time;durP1;ratioP1;P1;durP2;ratioP2;P2;SDS_P1;SDS_P2;PMS_P1;PMS_P2;Temp;Humidity;BMP_temperature;BMP_pressure;BME280_temperature;BME280_humidity;BME280_pressure;Samples;Min_cycle;Max_cycle;Signal;HPM_P1;HPM_P2
2022/04/11 00:01:44;;;;;;;15.70;11.48;;;4.20;76.20;;;2.37;78.62;96414.16;4880125;28;20228;-67
2022/04/11 00:04:10;;;;;;;14.25;11.05;;;4.20;76.30;;;2.33;78.78;96417.97;4907847;28;20417;-66
2022/04/11 00:06:36;;;;;;;16.38;11.48;;;4.10;76.40;;;2.30;79.29;96407.03;4904484;28;20284;-66
2022/04/11 00:09:02;;;;;;;13.85;10.88;;;4.10;76.30;;;2.28;79.01;96414.13;4857023;28;20343;-67
2022/04/11 00:11:28;;;;;;;15.02;11.40;;;4.10;76.40;;;2.26;79.07;96411.63;4891789;28;20362;-67
2022/04/11 00:13:55;;;;;;;16.60;11.63;;;4.10;76.40;;;2.22;79.03;96410.25;4888046;28;20715;-68
2022/04/11 00:16:20;;;;;;;15.80;11.85;;;4.10;76.60;;;2.20;78.41;96404.38;4871632;28;20461;-68
2022/04/11 00:18:47;;;;;;;14.77;11.20;;;4.00;76.50;;;2.17;79.14;96402.03;4926867;28;20627;-66
2022/04/11 00:21:12;;;;;;;16.60;12.32;;;4.00;76.60;;;2.12;79.23;96402.44;4873796;28;20557;-66
2022/04/11 00:23:38;;;;;;;17.40;11.50;;;3.90;76.70;;;2.10;79.10;96401.75;4873980;28;20375;-67
2022/04/11 00:26:05;;;;;;;18.95;13.07;;;3.90;76.70;;;2.07;79.53;96398.59;4874409;28;20417;-67
2022/04/11 00:28:31;;;;;;;17.67;13.20;;;3.90;77.00;;;2.04;80.21;96404.03;4888944;28;20363;-67
2022/04/11 00:30:57;;;;;;;19.25;14.23;;;3.80;77.50;;;1.99;79.57;96394.00;4906320;28;20363;-67
2022/04/11 00:33:23;;;;;;;23.08;15.60;;;3.90;77.70;;;1.97;80.34;96403.72;4895022;28;20645;-66
2022/04/11 00:35:49;;;;;;;21.88;15.55;;;3.80;78.00;;;1.95;80.46;96395.22;4914849;28;20397;-66
2022/04/11 00:38:15;;;;;;;24.13;15.80;;;3.90;78.20;;;1.94;80.31;96400.53;4886346;28;20334;-66
2022/04/11 00:40:41;;;;;;;20.13;15.38;;;3.90;78.20;;;1.93;80.83;96393.72;4879870;28;20579;-67
2022/04/11 00:43:07;;;;;;;21.38;15.90;;;3.80;78.10;;;1.91;81.12;96400.81;4896853;28;20331;-66
2022/04/11 00:45:34;;;;;;;21.08;15.85;;;3.80;77.90;;;1.88;80.83;96406.25;4899057;28;20814;-66
2022/04/11 00:48:00;;;;;;;21.48;15.35;;;3.70;77.80;;;1.86;80.48;96402.97;4901827;28;20336;-66
2022/04/11 00:50:26;;;;;;;19.92;15.23;;;3.70;77.70;;;1.83;81.16;96404.88;4882320;28;20401;-67
2022/04/11 00:52:54;;;;;;;21.38;15.65;;;3.70;77.90;;;1.80;81.47;96407.69;4891022;28;20303;-67
2022/04/11 00:55:23;;;;;;;17.13;13.15;;;3.60;78.30;;;1.76;81.96;96408.91;4875767;28;20663;-67
2022/04/11 00:57:49;;;;;;;19.02;14.50;;;3.60;78.40;;;1.75;80.58;96406.44;4915936;28;20414;-66
2022/04/11 01:00:16;;;;;;;21.80;15.27;;;3.60;78.40;;;1.72;81.29;96402.34;4863853;28;20193;-66
2022/04/11 01:02:42;;;;;;;19.88;15.85;;;3.60;78.20;;;1.71;80.90;96408.47;4884389;28;20363;-67
2022/04/11 01:05:12;;;;;;;21.60;15.93;;;3.60;78.10;;;1.67;81.10;96394.13;4984328;23;20049;-67
2022/04/11 01:07:39;;;;;;;18.95;15.10;;;3.60;78.10;;;1.65;81.65;96401.22;5016303;28;20056;-67
2022/04/11 01:10:10;;;;;;;20.50;15.60;;;3.60;78.00;;;1.64;82.32;96407.34;5011895;28;20513;-67
2022/04/11 01:12:36;;;;;;;20.90;14.52;;;3.50;77.90;;;1.61;80.80;96397.22;5024741;28;20055;-67
2022/04/11 01:15:06;;;;;;;19.00;14.13;;;3.50;77.70;;;1.60;81.03;96400.78;5014699;28;20116;-67
2022/04/11 01:17:45;;;;;;;18.23;13.68;;;3.50;77.60;;;1.56;82.32;96401.13;4987308;28;20862;-66
2022/04/11 01:20:20;;;;;;;19.80;14.05;;;3.40;77.70;;;1.53;81.71;96404.78;4970781;28;20842;-67
2022/04/11 01:22:48;;;;;;;19.88;13.40;;;3.40;77.60;;;1.49;80.95;96413.78;5026973;28;20039;-67
2022/04/11 01:25:15;;;;;;;18.10;12.95;;;3.40;77.60;;;1.47;80.61;96410.47;4933244;23;20387;-66
2022/04/11 01:27:42;;;;;;;109.15;62.97;;;3.40;77.60;;;1.46;80.93;96408.84;4877365;28;20483;-66
2022/04/11 01:30:10;;;;;;;107.65;69.93;;;3.40;78.00;;;1.46;81.81;96403.66;4864321;28;20363;-66
2022/04/11 01:32:37;;;;;;;42.13;26.05;;;3.30;78.40;;;1.45;81.40;96407.19;4910183;28;20477;-66
2022/04/11 01:35:04;;;;;;;24.48;16.27;;;3.30;78.30;;;1.44;81.98;96408.97;4878061;28;20038;-66
2022/04/11 01:37:30;;;;;;;20.75;15.18;;;3.40;78.20;;;1.43;81.44;96406.50;4884585;28;20557;-66
2022/04/11 01:39:56;;;;;;;20.17;14.25;;;3.40;78.30;;;1.42;81.21;96405.69;4879254;28;20429;-65
2022/04/11 01:42:22;;;;;;;16.92;12.80;;;3.30;78.40;;;1.41;81.42;96398.03;4879135;28;20299;-66
2022/04/11 01:44:48;;;;;;;17.67;12.30;;;3.30;78.40;;;1.40;82.00;96404.16;4915902;28;20739;-66
2022/04/11 01:47:14;;;;;;;17.95;12.70;;;3.20;78.00;;;1.37;81.98;96407.00;4892807;28;20412;-66
2022/04/11 01:49:40;;;;;;;17.92;13.07;;;3.30;77.90;;;1.35;81.26;96401.91;4902302;28;20467;-66
2022/04/11 01:52:07;;;;;;;15.23;12.00;;;3.20;77.90;;;1.32;81.74;96393.59;4899593;28;20467;-66
2022/04/11 01:54:33;;;;;;;16.63;12.70;;;3.10;78.00;;;1.29;81.12;96399.00;4898003;28;20316;-66
2022/04/11 01:56:59;;;;;;;17.73;12.90;;;3.20;78.00;;;1.28;81.35;96397.38;4872764;28;20377;-66
2022/04/11 01:59:25;;;;;;;20.27;12.68;;;3.10;77.90;;;1.24;81.57;96394.22;4890583;28;20431;-65
2022/04/11 02:01:51;;;;;;;17.05;11.90;;;3.10;77.90;;;1.21;81.61;96397.88;4875042;28;20715;-66
2022/04/11 02:04:17;;;;;;;16.80;12.13;;;3.10;77.90;;;1.19;80.83;96399.78;4881972;28;20487;-66
2022/04/11 02:06:43;;;;;;;18.45;11.93;;;3.10;77.90;;;1.17;81.57;96396.47;4881914;28;20704;-66
2022/04/11 02:09:09;;;;;;;16.38;12.07;;;3.10;77.70;;;1.15;81.68;96393.19;4891348;28;20495;-67
2022/04/11 02:11:35;;;;;;;18.65;12.05;;;3.10;77.60;;;1.14;81.24;96390.72;4890129;28;20034;-66
2022/04/11 02:14:01;;;;;;;15.70;11.55;;;3.00;77.80;;;1.13;81.28;96394.25;4866513;28;20371;-66
2022/04/11 02:16:27;;;;;;;15.38;11.68;;;3.00;77.70;;;1.11;82.06;96384.00;4882513;28;20344;-66
2022/04/11 02:18:53;;;;;;;15.57;11.40;;;3.10;77.80;;;1.12;81.45;96382.22;4894014;28;20208;-66
2022/04/11 02:21:19;;;;;;;14.27;11.48;;;3.10;77.80;;;1.10;81.67;96374.59;4913038;28;20363;-66
2022/04/11 02:23:46;;;;;;;16.60;10.90;;;3.10;78.00;;;1.11;81.59;96370.22;4866933;28;20360;-66
2022/04/11 02:26:12;;;;;;;15.23;11.68;;;3.10;78.10;;;1.10;82.26;96369.41;4899570;28;20800;-66
2022/04/11 02:28:38;;;;;;;16.27;11.75;;;3.10;78.20;;;1.10;82.62;96364.22;4860803;28;20689;-66
2022/04/11 02:31:04;;;;;;;18.30;11.38;;;3.10;78.40;;;1.11;81.82;96365.88;4882742;28;20648;-65
2022/04/11 02:33:30;;;;;;;15.93;11.70;;;3.10;78.60;;;1.11;82.19;96360.69;4871768;28;20506;-66
2022/04/11 02:35:56;;;;;;;15.00;11.73;;;3.10;78.60;;;1.12;81.91;96362.34;4866782;28;20821;-66
2022/04/11 02:38:22;;;;;;;93.68;60.15;;;3.10;78.70;;;1.12;83.12;96362.34;4888812;28;20363;-66
2022/04/11 02:40:49;;;;;;;85.10;56.72;;;3.10;78.90;;;1.15;82.92;96367.28;4874196;28;20305;-68
2022/04/11 02:43:15;;;;;;;42.75;29.20;;;3.10;79.40;;;1.17;83.24;96354.22;4899902;28;20359;-68
2022/04/11 02:45:41;;;;;;;30.42;21.92;;;3.10;79.10;;;1.15;83.28;96356.09;4878311;28;20821;-66
2022/04/11 02:48:07;;;;;;;50.85;31.02;;;3.20;79.10;;;1.18;83.82;96359.25;4877217;28;20457;-66
2022/04/11 02:50:33;;;;;;;20.83;15.45;;;3.20;78.90;;;1.16;82.75;96361.16;4891060;28;20300;-66
2022/04/11 02:52:59;;;;;;;18.88;13.50;;;3.10;78.60;;;1.13;83.26;96360.56;4897127;28;20423;-66
2022/04/11 02:55:25;;;;;;;20.05;14.00;;;3.10;78.80;;;1.10;83.33;96361.63;4878858;28;20940;-66
2022/04/11 02:57:51;;;;;;;18.33;13.30;;;3.00;79.30;;;1.08;83.10;96355.75;4881740;28;20576;-65
2022/04/11 03:00:18;;;;;;;19.30;13.27;;;2.90;79.40;;;1.04;83.04;96349.19;4914345;28;20299;-67
2022/04/11 03:02:44;;;;;;;17.27;13.27;;;2.90;79.40;;;1.01;82.62;96348.63;4886845;28;20350;-66
2022/04/11 03:05:10;;;;;;;29.75;19.38;;;2.80;79.30;;;0.98;83.68;96349.69;4882635;28;20343;-66
2022/04/11 03:07:36;;;;;;;25.42;19.13;;;2.80;79.70;;;0.96;83.70;96346.41;4862840;28;20634;-67
2022/04/11 03:10:03;;;;;;;44.97;30.92;;;2.80;79.60;;;0.96;83.76;96349.00;4864820;28;20379;-66
2022/04/11 03:12:31;;;;;;;36.80;26.25;;;2.80;79.80;;;0.94;83.67;96350.88;4906196;28;20289;-67
2022/04/11 03:14:57;;;;;;;21.43;14.57;;;2.80;79.60;;;0.93;83.03;96357.03;4867272;28;20731;-66
2022/04/11 03:17:23;;;;;;;16.98;12.35;;;2.80;79.30;;;0.93;83.72;96359.59;4895537;28;20701;-66
2022/04/11 03:19:49;;;;;;;15.13;11.63;;;2.80;79.40;;;0.94;82.90;96348.31;4903347;28;20191;-66
2022/04/11 03:22:15;;;;;;;14.70;10.70;;;2.80;79.20;;;0.95;83.86;96349.13;4886831;28;20485;-67
2022/04/11 03:24:41;;;;;;;13.82;11.23;;;2.80;79.30;;;0.94;83.20;96352.66;4882270;28;20316;-66
2022/04/11 03:27:08;;;;;;;17.52;10.90;;;2.80;79.10;;;0.92;83.11;96345.00;4899078;28;20446;-67
2022/04/11 03:29:34;;;;;;;13.60;9.93;;;2.80;79.00;;;0.90;83.40;96352.88;4885555;28;20501;-66
2022/04/11 03:32:00;;;;;;;15.30;10.40;;;2.80;78.90;;;0.89;82.85;96356.41;4879880;28;20376;-66
2022/04/11 03:34:26;;;;;;;11.77;9.13;;;2.70;78.80;;;0.88;83.31;96335.81;4893384;28;20416;-66
2022/04/11 03:36:52;;;;;;;14.73;8.88;;;2.70;78.60;;;0.87;83.33;96347.13;4897204;28;20371;-66
2022/04/11 03:39:18;;;;;;;11.70;7.88;;;2.80;78.60;;;0.88;83.81;96343.59;4858380;28;20367;-69
2022/04/11 03:41:44;;;;;;;15.50;10.32;;;2.80;78.80;;;0.90;83.11;96341.69;4882790;28;20595;-67
2022/04/11 03:44:10;;;;;;;19.33;11.63;;;2.90;78.90;;;0.94;83.20;96343.13;4867573;28;20378;-66
2022/04/11 03:46:38;;;;;;;15.95;11.52;;;2.90;78.90;;;0.97;83.42;96339.47;4865118;28;20312;-66
2022/04/11 03:49:04;;;;;;;25.88;18.48;;;3.00;78.90;;;0.99;83.23;96340.97;4885623;28;20340;-66
2022/04/11 03:51:30;;;;;;;13.35;10.25;;;3.00;78.70;;;1.00;83.15;96334.84;4870247;28;20581;-66
2022/04/11 03:53:56;;;;;;;11.32;8.70;;;3.00;78.30;;;1.01;82.97;96333.91;4944990;28;20194;-64
2022/04/11 03:56:22;;;;;;;9.75;7.30;;;3.00;78.20;;;0.98;82.88;96326.38;4980734;28;20119;-62
2022/04/11 03:58:47;;;;;;;10.18;7.68;;;2.90;78.20;;;0.97;83.05;96326.50;4990206;28;20035;-63
2022/04/11 04:01:13;;;;;;;12.25;8.80;;;2.90;78.10;;;0.93;83.25;96328.53;4980289;28;20038;-63
2022/04/11 04:03:40;;;;;;;10.50;7.65;;;2.80;78.30;;;0.91;83.55;96327.84;4972045;28;20040;-63
2022/04/11 04:06:06;;;;;;;13.10;8.77;;;2.80;78.60;;;0.90;82.85;96332.16;4972458;28;20533;-63
2022/04/11 04:08:31;;;;;;;11.52;8.60;;;2.80;78.60;;;0.91;83.44;96326.06;4999254;28;20025;-63
2022/04/11 04:10:57;;;;;;;12.05;8.27;;;2.80;78.70;;;0.90;83.02;96315.81;4976262;28;20089;-62
2022/04/11 04:13:23;;;;;;;11.05;8.45;;;2.80;78.80;;;0.91;82.80;96317.47;4956242;28;20120;-63
2022/04/11 04:15:49;;;;;;;12.20;8.93;;;2.80;78.70;;;0.92;83.17;96313.94;4970397;28;20525;-63
2022/04/11 04:18:15;;;;;;;11.88;7.90;;;2.80;78.60;;;0.93;83.04;96305.22;4982468;28;20230;-63
2022/04/11 04:20:40;;;;;;;10.27;8.02;;;2.80;78.60;;;0.93;83.40;96302.63;4974723;28;20497;-63
2022/04/11 04:23:06;;;;;;;10.98;8.55;;;2.80;78.60;;;0.94;83.59;96296.50;4991539;28;20352;-63
2022/04/11 04:25:38;;;;;;;13.40;8.60;;;2.90;78.60;;;0.94;84.00;96295.69;5005264;28;20049;-63
2022/04/11 04:28:04;;;;;;;10.40;7.95;;;2.90;78.50;;;0.95;83.11;96299.91;5009043;28;20049;-63
2022/04/11 04:30:30;;;;;;;11.68;8.18;;;2.90;78.50;;;0.94;82.97;96291.31;4990828;28;20073;-62
2022/04/11 04:32:57;;;;;;;14.23;8.50;;;2.80;78.30;;;0.93;82.98;96286.28;4991478;28;20124;-63
2022/04/11 04:35:23;;;;;;;12.52;8.63;;;2.80;78.40;;;0.94;83.24;96280.97;4990333;28;20041;-63
2022/04/11 04:37:48;;;;;;;13.60;7.75;;;2.90;78.20;;;0.95;83.39;96287.78;4979629;28;20038;-62
2022/04/11 04:40:14;;;;;;;12.45;10.10;;;2.90;78.30;;;0.98;83.21;96287.53;5005041;28;20493;-62
2022/04/11 04:42:40;;;;;;;14.18;10.25;;;3.00;78.50;;;1.02;83.33;96294.09;4974379;28;20420;-63
2022/04/11 04:45:06;;;;;;;15.35;11.73;;;3.10;78.40;;;1.06;83.40;96284.31;4974200;28;20120;-63
2022/04/11 04:47:32;;;;;;;11.63;9.27;;;3.10;78.50;;;1.07;83.47;96286.78;4962602;28;20042;-63
2022/04/11 04:49:58;;;;;;;11.98;9.00;;;3.10;78.20;;;1.10;83.21;96285.69;4993112;28;20030;-62
2022/04/11 04:52:24;;;;;;;12.45;9.50;;;3.10;77.90;;;1.10;83.49;96281.34;4966118;28;20469;-62
2022/04/11 04:54:49;;;;;;;12.20;9.23;;;3.10;77.90;;;1.12;83.23;96279.44;4984343;28;20029;-63
2022/04/11 04:57:15;;;;;;;15.95;10.50;;;3.10;78.00;;;1.14;83.30;96272.38;4978423;28;20126;-63
2022/04/11 04:59:41;;;;;;;14.65;10.07;;;3.20;78.10;;;1.16;82.91;96267.91;4996876;28;20049;-65
2022/04/11 05:02:07;;;;;;;13.35;10.48;;;3.20;77.90;;;1.20;83.86;96277.06;4978503;28;20141;-65
2022/04/11 05:04:32;;;;;;;14.60;11.02;;;3.30;78.10;;;1.23;83.79;96273.38;4969797;28;20052;-65
2022/04/11 05:06:58;;;;;;;15.50;11.10;;;3.40;77.90;;;1.26;84.17;96275.72;4990251;28;20490;-65
2022/04/11 05:09:24;;;;;;;12.80;10.05;;;3.40;77.70;;;1.30;83.46;96276.28;5003300;28;20030;-64
2022/04/11 05:11:50;;;;;;;14.88;10.30;;;3.50;77.60;;;1.32;83.40;96276.97;4987210;28;20038;-64
2022/04/11 05:14:15;;;;;;;12.77;10.32;;;3.50;77.10;;;1.33;83.52;96273.44;4970174;28;20493;-65
2022/04/11 05:16:41;;;;;;;13.35;10.32;;;3.50;76.90;;;1.37;83.62;96272.25;4961449;28;20476;-65
2022/04/11 05:19:07;;;;;;;11.50;9.38;;;3.60;76.80;;;1.43;82.93;96279.50;4970962;28;20341;-65
2022/04/11 05:21:33;;;;;;;13.55;10.13;;;3.60;76.60;;;1.46;83.11;96271.47;4987276;28;20092;-65
2022/04/11 05:23:58;;;;;;;14.20;9.48;;;3.60;76.40;;;1.48;82.86;96269.56;4970871;28;20115;-65
2022/04/11 05:26:24;;;;;;;12.80;9.70;;;3.70;76.30;;;1.52;83.54;96266.56;4978096;28;20042;-65
2022/04/11 05:28:50;;;;;;;10.35;9.07;;;3.70;76.40;;;1.56;83.26;96272.31;4995047;28;20038;-65
2022/04/11 05:31:16;;;;;;;13.43;9.35;;;3.80;76.10;;;1.61;83.24;96259.81;4987767;28;20026;-65
2022/04/11 05:33:42;;;;;;;12.57;9.43;;;3.90;76.00;;;1.67;82.98;96261.88;4989960;28;20033;-65
2022/04/11 05:36:08;;;;;;;17.35;13.27;;;3.90;76.00;;;1.74;83.14;96259.56;4981588;28;20037;-65
2022/04/11 05:38:34;;;;;;;22.25;15.52;;;4.10;75.90;;;1.82;83.23;96263.19;4973356;28;20037;-65
2022/04/11 05:41:00;;;;;;;16.40;10.43;;;4.20;75.80;;;1.91;82.94;96269.34;4990082;28;20524;-65
2022/04/11 05:43:25;;;;;;;13.73;10.45;;;4.30;75.00;;;1.99;82.40;96259.13;4989995;28;20032;-65
2022/04/11 05:45:51;;;;;;;14.63;8.98;;;4.40;74.60;;;2.08;83.08;96257.53;4967756;28;20145;-65
2022/04/11 05:48:17;;;;;;;10.43;7.65;;;4.60;74.60;;;2.19;82.43;96265.19;5006283;28;20042;-68
2022/04/11 05:50:43;;;;;;;10.82;7.95;;;4.70;74.00;;;2.28;82.32;96269.59;4983199;28;20037;-65
2022/04/11 05:53:08;;;;;;;10.80;7.82;;;4.90;73.40;;;2.40;82.70;96273.69;5006116;28;20064;-65
2022/04/11 05:55:34;;;;;;;10.48;8.07;;;5.10;72.90;;;2.54;82.29;96259.50;4986316;28;20055;-63
2022/04/11 05:58:00;;;;;;;10.88;8.45;;;5.20;72.60;;;2.65;81.91;96263.75;4994356;28;20278;-62
2022/04/11 06:00:26;;;;;;;10.52;7.70;;;5.40;71.80;;;2.77;81.99;96267.88;5004775;28;20167;-63
2022/04/11 06:02:51;;;;;;;9.95;7.53;;;5.50;71.00;;;2.84;81.05;96273.31;4990012;28;20391;-63
2022/04/11 06:05:17;;;;;;;11.23;7.95;;;5.40;70.50;;;2.85;80.87;96268.00;4973053;28;20410;-62
2022/04/11 06:07:43;;;;;;;9.25;7.55;;;5.40;70.50;;;2.95;80.57;96273.19;4978025;28;20034;-63
2022/04/11 06:10:09;;;;;;;11.88;7.88;;;5.60;70.40;;;3.03;80.31;96266.34;5003116;28;20036;-63
2022/04/11 06:12:35;;;;;;;9.45;7.00;;;5.60;69.80;;;3.08;80.30;96258.13;4989266;28;20080;-62
2022/04/11 06:15:01;;;;;;;11.05;7.85;;;5.60;69.80;;;3.18;80.21;96263.34;4987419;28;20033;-62
2022/04/11 06:17:27;;;;;;;11.60;7.25;;;5.90;69.60;;;3.30;79.57;96262.19;4997621;28;20469;-62
2022/04/11 06:19:54;;;;;;;9.90;7.00;;;6.00;68.40;;;3.39;79.29;96274.34;4990089;28;20037;-63
2022/04/11 06:22:20;;;;;;;8.32;6.65;;;6.10;68.50;;;3.47;79.17;96274.47;4989743;28;20045;-62
2022/04/11 06:24:47;;;;;;;8.75;6.10;;;6.10;68.20;;;3.57;78.63;96270.06;5005403;28;20072;-63
2022/04/11 06:27:12;;;;;;;9.27;6.53;;;6.20;67.60;;;3.69;78.18;96276.75;4995838;28;20159;-63
2022/04/11 06:29:38;;;;;;;9.18;5.65;;;6.40;67.60;;;3.73;78.16;96268.66;4989887;28;20044;-63
2022/04/11 06:32:05;;;;;;;8.30;6.18;;;6.20;66.90;;;3.82;78.04;96275.59;5006106;28;20064;-63
2022/04/11 06:34:35;;;;;;;8.15;5.60;;;6.50;67.20;;;3.94;77.24;96274.47;4988553;28;20152;-63
2022/04/11 06:37:01;;;;;;;8.07;5.63;;;6.60;66.20;;;4.05;76.86;96278.66;4999906;28;20056;-63
2022/04/11 06:39:27;;;;;;;8.65;5.32;;;6.70;65.50;;;4.16;76.11;96278.47;4988913;28;20041;-62
2022/04/11 06:41:53;;;;;;;8.65;5.60;;;6.80;64.70;;;4.25;76.24;96286.22;4989060;28;20422;-62
2022/04/11 06:44:18;;;;;;;9.65;5.00;;;6.80;64.00;;;4.36;75.66;96274.81;4979037;28;20068;-63
2022/04/11 06:46:44;;;;;;;8.40;5.10;;;7.10;63.90;;;4.48;75.16;96281.44;4977288;28;20126;-63
2022/04/11 06:49:10;;;;;;;7.95;4.45;;;7.20;64.00;;;4.64;75.35;96265.16;4988732;28;20121;-63
2022/04/11 06:51:36;;;;;;;6.03;4.47;;;7.40;63.40;;;4.82;74.90;96278.19;5005458;28;20372;-63
2022/04/11 06:54:02;;;;;;;7.00;4.35;;;7.60;63.50;;;5.00;73.79;96281.63;5005220;28;20118;-63
2022/04/11 06:56:27;;;;;;;7.43;4.32;;;7.80;61.90;;;5.16;73.59;96286.97;4985025;28;20038;-63
2022/04/11 06:58:53;;;;;;;4.68;3.65;;;7.90;61.90;;;5.27;73.34;96275.47;4994199;28;20033;-63
2022/04/11 07:01:19;;;;;;;5.20;4.03;;;8.00;61.00;;;5.39;72.57;96276.03;4968012;28;20406;-64
2022/04/11 07:03:45;;;;;;;4.47;3.50;;;8.10;59.80;;;5.50;72.37;96273.19;4950390;28;20034;-63
2022/04/11 07:06:11;;;;;;;5.00;3.75;;;8.30;60.60;;;5.63;71.72;96273.59;4949545;28;20038;-64
2022/04/11 07:08:37;;;;;;;5.57;3.60;;;8.50;60.00;;;5.79;71.27;96272.88;4985896;28;20583;-63
2022/04/11 07:11:04;;;;;;;6.38;4.25;;;8.70;59.10;;;5.93;71.16;96268.91;4968281;28;20117;-63
2022/04/11 07:13:30;;;;;;;6.75;4.50;;;8.80;58.40;;;6.05;70.66;96268.47;4991905;28;20328;-63
2022/04/11 07:15:56;;;;;;;5.18;4.00;;;9.10;58.50;;;6.20;71.08;96273.94;4986953;28;20034;-63
2022/04/11 07:18:25;;;;;;;7.57;4.25;;;9.20;58.30;;;6.41;70.36;96268.28;4991609;28;20199;-64
2022/04/11 07:20:51;;;;;;;5.00;4.15;;;9.60;57.10;;;6.57;69.66;96267.53;4985665;28;20037;-63
2022/04/11 07:23:18;;;;;;;6.57;4.10;;;9.80;57.40;;;6.74;69.51;96263.94;5009221;28;20025;-64
2022/04/11 07:25:44;;;;;;;6.28;3.63;;;9.90;56.90;;;6.91;69.05;96265.59;4986720;28;20041;-63
2022/04/11 07:28:10;;;;;;;5.18;3.60;;;10.10;55.70;;;7.09;68.59;96262.03;4984243;28;20420;-63
2022/04/11 07:30:36;;;;;;;4.30;3.20;;;10.40;54.50;;;7.35;66.69;96262.66;4992051;28;20045;-63
2022/04/11 07:33:01;;;;;;;6.70;3.40;;;10.70;53.00;;;7.56;66.97;96260.38;5008384;28;20389;-63
2022/04/11 07:35:27;;;;;;;4.15;2.90;;;11.00;52.10;;;7.83;65.53;96260.97;4987097;28;20041;-63
2022/04/11 07:37:53;;;;;;;5.05;2.92;;;11.20;50.70;;;8.07;65.23;96257.44;4983850;28;20037;-63
2022/04/11 07:40:19;;;;;;;5.80;3.13;;;11.60;50.30;;;8.32;64.68;96266.84;5007946;28;20573;-63
2022/04/11 07:42:45;;;;;;;5.03;3.20;;;11.90;48.90;;;8.57;64.05;96260.50;5008378;28;20090;-63
2022/04/11 07:45:11;;;;;;;7.22;3.15;;;12.20;48.00;;;8.89;63.60;96253.47;5003267;28;20149;-63
2022/04/11 07:47:36;;;;;;;3.53;2.72;;;12.70;47.10;;;9.22;63.01;96259.25;4979823;28;20048;-63
2022/04/11 07:50:03;;;;;;;5.15;2.80;;;13.20;46.40;;;9.59;63.32;96263.72;4980357;28;20042;-63
2022/04/11 07:52:29;;;;;;;5.63;3.05;;;13.50;44.40;;;9.98;61.91;96260.88;4988665;28;20537;-63
2022/04/11 07:54:55;;;;;;;4.07;2.83;;;14.20;43.80;;;10.37;61.31;96255.31;4987286;28;20037;-63
2022/04/11 07:57:21;;;;;;;4.88;2.92;;;14.40;42.20;;;10.80;59.75;96273.00;4980028;28;20049;-63
2022/04/11 07:59:47;;;;;;;3.85;2.65;;;14.90;41.00;;;11.28;58.58;96268.84;4984487;28;20037;-63
2022/04/11 08:02:13;;;;;;;5.57;3.00;;;15.50;40.00;;;11.70;57.39;96267.16;5016456;28;20048;-62
2022/04/11 08:04:38;;;;;;;5.43;2.50;;;15.70;38.50;;;12.09;55.90;96262.19;4990501;28;20041;-63
2022/04/11 08:07:04;;;;;;;4.50;2.72;;;16.10;37.40;;;12.45;54.88;96266.44;5008163;28;20060;-63
2022/04/11 08:09:30;;;;;;;5.63;2.45;;;16.40;36.90;;;12.85;53.12;96268.19;4987423;28;20272;-64
2022/04/11 08:11:56;;;;;;;5.00;2.30;;;16.60;35.90;;;13.19;52.32;96258.56;4993188;28;20133;-63
2022/04/11 08:14:22;;;;;;;5.72;2.92;;;16.70;36.00;;;13.46;51.39;96270.78;5003318;28;20133;-64
2022/04/11 08:16:47;;;;;;;4.70;2.78;;;16.90;34.90;;;13.64;50.15;96256.16;5007712;28;20115;-63
2022/04/11 08:19:13;;;;;;;3.58;2.40;;;17.00;35.30;;;13.89;49.12;96257.13;4988512;28;20488;-64
2022/04/11 08:21:39;;;;;;;4.13;2.45;;;17.20;35.80;;;14.08;48.67;96248.34;4981580;28;20567;-63
2022/04/11 08:24:05;;;;;;;3.97;2.92;;;17.00;34.60;;;14.28;46.49;96247.50;5012053;28;20038;-63
2022/04/11 08:26:31;;;;;;;4.75;2.58;;;17.30;34.80;;;14.51;45.44;96252.34;5024534;28;20026;-64
2022/04/11 08:28:57;;;;;;;3.85;2.50;;;17.30;34.00;;;14.57;45.19;96246.19;5008367;28;20053;-63
2022/04/11 08:31:23;;;;;;;3.88;2.58;;;17.30;34.30;;;14.62;45.40;96239.25;5008042;28;20045;-63
2022/04/11 08:33:48;;;;;;;4.38;3.08;;;17.30;34.90;;;14.76;45.63;96240.00;4996615;28;20038;-63
2022/04/11 08:36:14;;;;;;;5.00;2.67;;;17.50;34.10;;;14.95;44.67;96231.16;5020944;28;20038;-63
2022/04/11 08:38:40;;;;;;;5.47;2.88;;;17.80;35.20;;;15.07;44.25;96231.25;5023779;28;20103;-63
2022/04/11 08:41:07;;;;;;;3.97;3.08;;;17.80;34.90;;;15.17;44.37;96221.03;5008298;28;20017;-63
2022/04/11 08:43:33;;;;;;;6.13;2.90;;;17.90;35.60;;;15.29;44.04;96223.78;4978788;28;20041;-63
2022/04/11 08:46:01;;;;;;;3.75;2.80;;;18.10;35.90;;;15.39;43.12;96218.81;4982738;28;20331;-64
2022/04/11 08:48:27;;;;;;;4.47;2.78;;;18.10;34.30;;;15.48;43.81;96212.22;5004182;28;20232;-63
2022/04/11 08:50:53;;;;;;;4.22;2.92;;;18.10;34.00;;;15.51;43.75;96206.47;4986156;28;20446;-63
2022/04/11 08:53:23;;;;;;;3.58;2.85;;;18.30;34.30;;;15.63;41.30;96206.63;5001834;28;20636;-63
2022/04/11 08:55:49;;;;;;;4.00;2.67;;;18.30;34.20;;;15.82;42.71;96202.13;5000881;28;20033;-63
2022/04/11 08:58:15;;;;;;;4.72;2.92;;;18.70;33.00;;;15.97;42.26;96196.50;5024132;28;20389;-63
2022/04/11 09:00:41;;;;;;;3.95;2.97;;;18.80;33.00;;;16.16;41.67;96195.47;5022977;28;20033;-63
2022/04/11 09:03:08;;;;;;;5.72;3.00;;;19.10;33.10;;;16.26;41.99;96190.44;5018861;28;20029;-63
2022/04/11 09:05:34;;;;;;;4.97;2.80;;;19.20;33.30;;;16.48;41.48;96196.91;5008355;28;20026;-64
2022/04/11 09:08:00;;;;;;;3.47;2.47;;;19.50;32.00;;;16.61;40.84;96190.63;5018373;28;20123;-63
2022/04/11 09:10:36;;;;;;;3.70;2.50;;;19.60;31.70;;;16.81;39.20;96195.72;4990081;28;20033;-64
2022/04/11 09:13:07;;;;;;;4.28;2.30;;;19.90;31.50;;;17.04;38.19;96195.78;5003578;28;20026;-63
2022/04/11 09:15:45;;;;;;;3.47;2.40;;;20.10;31.00;;;17.15;37.99;96195.00;5011953;28;20096;-64
2022/04/11 09:18:10;;;;;;;5.20;2.50;;;20.10;30.60;;;17.27;39.18;96200.34;4987202;28;20041;-64
2022/04/11 09:20:40;;;;;;;3.83;2.55;;;20.10;30.50;;;17.47;38.58;96194.72;4980866;28;20061;-63
2022/04/11 09:23:20;;;;;;;4.20;2.80;;;20.60;30.40;;;17.68;36.60;96191.53;5014844;28;20018;-63
2022/04/11 09:25:46;;;;;;;4.78;2.70;;;20.60;29.60;;;17.92;39.40;96199.50;4989941;28;20186;-64
2022/04/11 09:28:12;;;;;;;8.60;3.00;;;20.90;30.40;;;18.09;38.36;96197.72;4997910;28;20496;-63
2022/04/11 09:30:39;;;;;;;3.90;2.50;;;20.90;29.90;;;18.21;37.26;96185.22;4981213;28;20037;-63
2022/04/11 09:33:09;;;;;;;3.78;2.70;;;21.20;29.40;;;18.48;35.85;96182.03;5022648;28;20064;-63
2022/04/11 09:35:36;;;;;;;7.22;3.05;;;21.60;28.70;;;18.58;36.71;96176.91;5005329;28;20120;-63
2022/04/11 09:38:15;;;;;;;3.78;2.65;;;21.60;28.80;;;18.72;35.47;96180.13;5012461;28;20053;-63
2022/04/11 09:40:48;;;;;;;3.25;2.30;;;21.80;28.40;;;18.71;35.50;96179.31;4991523;28;20502;-63
2022/04/11 09:43:17;;;;;;;3.70;2.60;;;21.70;29.00;;;18.86;36.16;96190.28;4991156;28;20582;-63
2022/04/11 09:45:47;;;;;;;8.35;3.10;;;22.10;28.90;;;19.02;34.59;96185.22;5005348;28;20047;-63
2022/04/11 09:48:21;;;;;;;;;;;22.10;28.00;;;19.17;35.01;96177.47;4989545;28;20132;-64
2022/04/11 09:50:47;;;;;;;4.15;2.22;;;22.40;28.40;;;19.22;36.92;96175.69;5002388;28;19975;-63
2022/04/11 09:53:24;;;;;;;3.10;2.50;;;22.40;27.90;;;19.35;34.84;96165.78;5003974;28;20037;-64
2022/04/11 09:55:52;;;;;;;3.50;2.33;;;22.60;28.60;;;19.50;36.29;96172.16;4968589;28;20486;-63
2022/04/11 09:58:19;;;;;;;3.88;2.40;;;23.00;27.90;;;19.62;35.36;96168.63;4997503;28;20053;-63
2022/04/11 10:00:45;;;;;;;3.17;2.33;;;23.10;27.10;;;19.72;35.04;96169.59;4982190;28;20050;-64
2022/04/11 10:03:11;;;;;;;3.53;2.25;;;23.50;26.80;;;19.80;34.55;96165.69;4972518;28;20030;-64
2022/04/11 10:05:38;;;;;;;3.20;2.47;;;23.50;26.50;;;19.87;34.82;96171.66;4985385;28;20130;-63
2022/04/11 10:08:06;;;;;;;3.13;2.45;;;23.40;27.40;;;19.99;34.20;96161.69;4986175;28;20554;-64
2022/04/11 10:10:38;;;;;;;3.30;2.58;;;23.50;27.00;;;20.06;35.14;96158.84;5008640;28;20199;-63
2022/04/11 10:13:07;;;;;;;3.83;2.53;;;23.60;27.10;;;20.32;34.32;96162.63;5002637;28;20576;-63
2022/04/11 10:15:34;;;;;;;4.53;2.57;;;24.00;27.00;;;20.58;33.75;96156.56;5005167;28;20144;-64
2022/04/11 10:18:00;;;;;;;5.78;2.35;;;24.30;25.80;;;20.80;33.86;96151.19;4988971;28;20365;-64
2022/04/11 10:20:36;;;;;;;3.10;2.30;;;24.60;25.90;;;21.14;32.53;96149.09;4961957;28;20548;-64